createdAt,value
2022-09-24T00:00:11.064Z,100302.04
2022-09-24T00:01:16.188Z,100303.07
2022-09-24T00:02:11.096Z,100304.65
2022-09-24T00:03:11.107Z,100305.49
2022-09-24T00:04:11.132Z,100304.21
2022-09-24T00:05:11.063Z,100307.12
2022-09-24T00:06:11.062Z,100305.09
2022-09-24T00:07:11.062Z,100303.50
2022-09-24T00:08:11.065Z,100304.25
2022-09-24T00:09:11.062Z,100303.14
2022-09-24T00:10:11.064Z,100302.53
2022-09-24T00:11:11.072Z,100307.72
2022-09-24T00:12:11.062Z,100306.46
2022-09-24T00:13:11.062Z,100304.36
2022-09-24T00:14:11.132Z,100302.22
2022-09-24T00:15:11.062Z,100303.41
2022-09-24T00:16:11.119Z,100302.48
2022-09-24T00:17:11.065Z,100303.63
2022-09-24T00:18:11.063Z,100302.57
2022-09-24T00:19:11.064Z,100302.68
2022-09-24T00:20:11.074Z,100304.47
2022-09-24T00:21:18.061Z,100306.14
2022-09-24T00:22:11.060Z,100306.65
2022-09-24T00:23:11.067Z,100307.49
2022-09-24T00:24:12.059Z,100306.45
2022-09-24T00:25:15.056Z,100306.77
2022-09-24T00:26:15.057Z,100304.70
2022-09-24T00:27:11.061Z,100303.88
2022-09-24T00:28:11.059Z,100301.43
2022-09-24T00:29:11.058Z,100296.73
2022-09-24T00:30:11.057Z,100294.61
2022-09-24T00:31:11.101Z,100294.99
2022-09-24T00:32:11.060Z,100295.15
2022-09-24T00:33:11.079Z,100291.84
2022-09-24T00:34:11.148Z,100291.16
2022-09-24T00:35:11.056Z,100292.20
2022-09-24T00:36:11.064Z,100291.39
2022-09-24T00:37:11.069Z,100288.14
2022-09-24T00:38:11.057Z,100291.78
2022-09-24T00:39:11.066Z,100294.96
2022-09-24T00:40:11.166Z,100293.75
2022-09-24T00:41:11.057Z,100293.27
2022-09-24T00:42:11.066Z,100291.32
2022-09-24T00:43:19.064Z,100295.27
2022-09-24T00:44:19.057Z,100294.24
2022-09-24T00:45:11.061Z,100295.99
2022-09-24T00:46:19.115Z,100294.95
2022-09-24T00:47:19.059Z,100297.58
2022-09-24T00:48:11.059Z,100296.54
2022-09-24T00:49:19.065Z,100298.13
2022-09-24T00:50:16.075Z,100294.91
2022-09-24T00:51:12.063Z,100295.73
2022-09-24T00:52:11.070Z,100295.77
2022-09-24T00:53:16.065Z,100294.91
2022-09-24T00:54:13.063Z,100290.85
2022-09-24T00:55:11.058Z,100287.56
2022-09-24T00:56:12.103Z,100289.80
2022-09-24T00:57:11.099Z,100290.46
2022-09-24T00:58:11.061Z,100289.38
2022-09-24T00:59:11.058Z,100290.91
2022-09-24T01:00:11.065Z,100291.52
2022-09-24T01:01:11.128Z,100291.78
2022-09-24T01:02:11.121Z,100288.39
2022-09-24T01:03:13.069Z,100292.29
2022-09-24T01:04:11.120Z,100288.96
2022-09-24T01:05:11.065Z,100289.88
2022-09-24T01:06:11.062Z,100287.80
2022-09-24T01:07:11.062Z,100287.80
2022-09-24T01:08:17.061Z,100288.46
2022-09-24T01:09:11.076Z,100292.48
2022-09-24T01:10:11.067Z,100287.82
2022-09-24T01:11:21.062Z,100291.95
2022-09-24T01:12:19.069Z,100291.28
2022-09-24T01:13:19.066Z,100291.62
2022-09-24T01:14:21.065Z,100290.51
2022-09-24T01:15:21.065Z,100291.50
2022-09-24T01:16:19.137Z,100290.31
2022-09-24T01:17:19.074Z,100292.22
2022-09-24T01:18:19.067Z,100288.66
2022-09-24T01:19:21.071Z,100290.68
2022-09-24T01:20:19.065Z,100288.22
2022-09-24T01:21:19.060Z,100288.62
2022-09-24T01:22:21.055Z,100287.70
2022-09-24T01:23:19.055Z,100284.64
2022-09-24T01:24:19.059Z,100284.74
2022-09-24T01:25:21.059Z,100280.86
2022-09-24T01:26:21.066Z,100281.96
2022-09-24T01:27:17.058Z,100279.82
2022-09-24T01:28:21.057Z,100281.41
2022-09-24T01:29:21.056Z,100282.06
2022-09-24T01:30:14.065Z,100281.24
2022-09-24T01:31:18.155Z,100277.84
2022-09-24T01:32:17.057Z,100277.84
2022-09-24T01:33:15.054Z,100276.33
2022-09-24T01:34:11.094Z,100275.45
2022-09-24T01:35:19.059Z,100276.16
2022-09-24T01:36:12.058Z,100276.77
2022-09-24T01:37:11.061Z,100274.15
2022-09-24T01:38:18.065Z,100275.82
2022-09-24T01:39:11.068Z,100276.01
2022-09-24T01:40:11.119Z,100272.71
2022-09-24T01:41:12.062Z,100273.86
2022-09-24T01:42:11.112Z,100274.14
2022-09-24T01:43:12.060Z,100272.99
2022-09-24T01:44:11.174Z,100273.82
2022-09-24T01:45:11.061Z,100266.54
2022-09-24T01:46:11.069Z,100267.14
2022-09-24T01:47:14.056Z,100267.76
2022-09-24T01:48:11.060Z,100268.40
2022-09-24T01:49:11.061Z,100263.86
2022-09-24T01:50:13.058Z,100264.65
2022-09-24T01:51:16.064Z,100263.98
2022-09-24T01:52:14.063Z,100263.23
2022-09-24T01:53:19.060Z,100266.44
2022-09-24T01:54:20.063Z,100263.91
2022-09-24T01:55:13.062Z,100263.46
2022-09-24T01:56:17.061Z,100262.65
2022-09-24T01:57:19.059Z,100261.27
2022-09-24T01:58:14.062Z,100259.21
2022-09-24T01:59:19.068Z,100258.41
2022-09-24T02:00:17.061Z,100260.21
2022-09-24T02:01:16.225Z,100257.10
2022-09-24T02:02:17.144Z,100255.22
2022-09-24T02:03:19.063Z,100258.57
2022-09-24T02:04:14.068Z,100257.62
2022-09-24T02:05:19.063Z,100257.61
2022-09-24T02:06:16.062Z,100260.73
2022-09-24T02:07:18.068Z,100260.23
2022-09-24T02:08:20.070Z,100260.38
2022-09-24T02:09:19.063Z,100258.18
2022-09-24T02:10:17.061Z,100258.07
2022-09-24T02:11:12.061Z,100262.02
2022-09-24T02:12:19.064Z,100258.40
2022-09-24T02:13:12.068Z,100260.83
2022-09-24T02:14:15.066Z,100263.39
2022-09-24T02:15:16.060Z,100263.07
2022-09-24T02:16:13.095Z,100265.21
2022-09-24T02:17:11.069Z,100262.20
2022-09-24T02:18:13.061Z,100263.55
2022-09-24T02:19:13.058Z,100263.55
2022-09-24T02:20:18.072Z,100261.81
2022-09-24T02:21:13.060Z,100260.67
2022-09-24T02:22:11.057Z,100259.12
2022-09-24T02:23:11.058Z,100259.73
2022-09-24T02:24:16.059Z,100260.66
2022-09-24T02:25:14.057Z,100258.19
2022-09-24T02:26:11.053Z,100260.22
2022-09-24T02:27:11.060Z,100263.66
2022-09-24T02:28:11.060Z,100264.17
2022-09-24T02:29:11.057Z,100262.89
2022-09-24T02:30:11.059Z,100261.93
2022-09-24T02:31:13.103Z,100260.22
2022-09-24T02:32:13.059Z,100261.25
2022-09-24T02:33:15.059Z,100260.49
2022-09-24T02:34:18.070Z,100262.40
2022-09-24T02:35:11.057Z,100259.88
2022-09-24T02:36:11.064Z,100260.55
2022-09-24T02:37:11.068Z,100261.81
2022-09-24T02:38:17.061Z,100264.21
2022-09-24T02:39:11.057Z,100262.79
2022-09-24T02:40:12.092Z,100263.77
2022-09-24T02:41:12.061Z,100262.23
2022-09-24T02:42:12.060Z,100265.20
2022-09-24T02:43:11.060Z,100268.91
2022-09-24T02:44:11.134Z,100264.00
2022-09-24T02:45:11.061Z,100266.73
2022-09-24T02:46:11.088Z,100265.63
2022-09-24T02:47:11.062Z,100267.98
2022-09-24T02:48:11.060Z,100267.88
2022-09-24T02:49:11.058Z,100274.67
2022-09-24T02:50:11.061Z,100272.05
2022-09-24T02:51:11.063Z,100271.89
2022-09-24T02:52:11.058Z,100273.20
2022-09-24T02:53:11.068Z,100274.88
2022-09-24T02:54:11.107Z,100274.55
2022-09-24T02:55:11.062Z,100275.77
2022-09-24T02:56:11.066Z,100274.00
2022-09-24T02:57:11.070Z,100276.25
2022-09-24T02:58:11.063Z,100276.46
2022-09-24T02:59:11.063Z,100275.60
2022-09-24T03:00:11.069Z,100275.38
2022-09-24T03:01:11.060Z,100273.09
2022-09-24T03:02:11.190Z,100275.60
2022-09-24T03:03:11.121Z,100276.59
2022-09-24T03:04:11.155Z,100274.67
2022-09-24T03:05:11.065Z,100276.26
2022-09-24T03:06:11.069Z,100276.20
2022-09-24T03:07:11.063Z,100277.73
2022-09-24T03:08:11.066Z,100273.02
2022-09-24T03:09:12.070Z,100274.61
2022-09-24T03:10:11.061Z,100275.43
2022-09-24T03:11:13.972Z,100272.70
2022-09-24T03:12:13.115Z,100277.45
2022-09-24T03:13:11.063Z,100272.75
2022-09-24T03:14:11.076Z,100273.14
2022-09-24T03:15:11.070Z,100272.03
2022-09-24T03:16:11.116Z,100270.89
2022-09-24T03:17:11.065Z,100267.55
2022-09-24T03:18:11.072Z,100270.39
2022-09-24T03:19:11.065Z,100268.59
2022-09-24T03:20:11.060Z,100269.47
2022-09-24T03:21:12.061Z,100268.20
2022-09-24T03:22:11.059Z,100268.37
2022-09-24T03:23:11.054Z,100269.19
2022-09-24T03:24:11.110Z,100268.26
2022-09-24T03:25:11.058Z,100267.34
2022-09-24T03:26:11.058Z,100269.41
2022-09-24T03:27:11.059Z,100268.91
2022-09-24T03:28:11.059Z,100270.95
2022-09-24T03:29:11.058Z,100267.98
2022-09-24T03:30:15.074Z,100268.27
2022-09-24T03:31:11.144Z,100267.16
2022-09-24T03:32:11.059Z,100264.60
2022-09-24T03:33:11.062Z,100261.20
2022-09-24T03:34:11.172Z,100262.19
2022-09-24T03:35:11.060Z,100265.02
2022-09-24T03:36:14.059Z,100263.17
2022-09-24T03:37:11.067Z,100264.63
2022-09-24T03:38:11.057Z,100263.16
2022-09-24T03:39:11.061Z,100266.17
2022-09-24T03:40:11.126Z,100265.77
2022-09-24T03:41:11.057Z,100266.82
2022-09-24T03:42:11.063Z,100266.45
2022-09-24T03:43:11.067Z,100268.69
2022-09-24T03:44:11.087Z,100263.81
2022-09-24T03:45:11.058Z,100267.03
2022-09-24T03:46:12.103Z,100266.16
2022-09-24T03:47:11.060Z,100268.75
2022-09-24T03:48:11.062Z,100268.79
2022-09-24T03:49:11.062Z,100264.80
2022-09-24T03:50:11.067Z,100269.35
2022-09-24T03:51:16.073Z,100271.09
2022-09-24T03:52:11.062Z,100269.34
2022-09-24T03:53:11.061Z,100271.87
2022-09-24T03:54:11.113Z,100268.73
2022-09-24T03:55:11.067Z,100269.62
2022-09-24T03:56:11.065Z,100271.91
2022-09-24T03:57:11.058Z,100270.77
2022-09-24T03:58:11.063Z,100273.50
2022-09-24T03:59:11.062Z,100270.82
2022-09-24T04:00:11.057Z,100274.86
2022-09-24T04:01:11.069Z,100276.17
2022-09-24T04:02:11.223Z,100273.77
2022-09-24T04:03:11.170Z,100276.71
2022-09-24T04:04:11.131Z,100275.69
2022-09-24T04:05:11.069Z,100275.56
2022-09-24T04:06:11.061Z,100276.60
2022-09-24T04:07:11.069Z,100274.42
2022-09-24T04:08:11.065Z,100274.64
2022-09-24T04:09:11.063Z,100280.16
2022-09-24T04:10:11.074Z,100281.20
2022-09-24T04:11:11.064Z,100280.49
2022-09-24T04:12:11.058Z,100277.26
2022-09-24T04:13:11.065Z,100279.95
2022-09-24T04:14:11.131Z,100281.49
2022-09-24T04:15:11.058Z,100281.32
2022-09-24T04:16:11.138Z,100282.96
2022-09-24T04:17:11.066Z,100280.93
2022-09-24T04:18:11.065Z,100284.23
2022-09-24T04:19:11.071Z,100281.49
2022-09-24T04:20:11.065Z,100285.97
2022-09-24T04:21:11.053Z,100283.89
2022-09-24T04:22:11.059Z,100285.86
2022-09-24T04:23:11.059Z,100286.57
2022-09-24T04:24:11.188Z,100285.75
2022-09-24T04:25:14.687Z,100283.13
2022-09-24T04:26:11.065Z,100282.91
2022-09-24T04:27:11.057Z,100288.98
2022-09-24T04:28:11.059Z,100285.82
2022-09-24T04:29:11.064Z,100284.83
2022-09-24T04:30:11.060Z,100285.48
2022-09-24T04:31:11.162Z,100286.31
2022-09-24T04:32:11.073Z,100284.06
2022-09-24T04:33:11.059Z,100283.79
2022-09-24T04:34:11.115Z,100281.27
2022-09-24T04:35:11.069Z,100284.73
2022-09-24T04:36:11.057Z,100282.31
2022-09-24T04:37:11.062Z,100283.80
2022-09-24T04:38:11.066Z,100283.92
2022-09-24T04:39:11.060Z,100285.50
2022-09-24T04:40:11.083Z,100285.23
2022-09-24T04:41:11.061Z,100286.71
2022-09-24T04:42:11.062Z,100286.27
2022-09-24T04:43:11.058Z,100288.35
2022-09-24T04:44:11.149Z,100286.98
2022-09-24T04:45:11.060Z,100290.70
2022-09-24T04:46:11.161Z,100290.42
2022-09-24T04:47:12.058Z,100290.15
2022-09-24T04:48:11.060Z,100289.56
2022-09-24T04:49:11.085Z,100294.03
2022-09-24T04:50:11.061Z,100296.17
2022-09-24T04:51:11.061Z,100297.27
2022-09-24T04:52:11.059Z,100296.77
2022-09-24T04:53:11.061Z,100297.91
2022-09-24T04:54:11.074Z,100295.18
2022-09-24T04:55:11.058Z,100298.79
2022-09-24T04:56:11.062Z,100297.80
2022-09-24T04:57:11.068Z,100299.89
2022-09-24T04:58:11.058Z,100300.49
2022-09-24T04:59:11.104Z,100299.78
2022-09-24T05:00:12.068Z,100304.05
2022-09-24T05:01:11.063Z,100302.84
2022-09-24T05:02:12.251Z,100304.38
2022-09-24T05:03:11.174Z,100298.86
2022-09-24T05:04:11.063Z,100303.82
2022-09-24T05:05:11.064Z,100303.61
2022-09-24T05:06:11.068Z,100304.32
2022-09-24T05:07:11.062Z,100306.56
2022-09-24T05:08:11.058Z,100307.76
2022-09-24T05:09:12.714Z,100309.36
2022-09-24T05:10:11.064Z,100308.64
2022-09-24T05:11:11.061Z,100311.77
2022-09-24T05:12:11.061Z,100316.14
2022-09-24T05:13:11.064Z,100314.28
2022-09-24T05:14:11.061Z,100316.78
2022-09-24T05:15:11.062Z,100316.56
2022-09-24T05:16:11.154Z,100312.50
2022-09-24T05:17:11.061Z,100314.60
2022-09-24T05:18:11.064Z,100319.57
2022-09-24T05:19:11.156Z,100319.83
2022-09-24T05:20:11.062Z,100317.63
2022-09-24T05:21:11.062Z,100317.79
2022-09-24T05:22:11.066Z,100321.52
2022-09-24T05:23:11.056Z,100321.83
2022-09-24T05:24:11.057Z,100319.04
2022-09-24T05:25:11.059Z,100322.27
2022-09-24T05:26:15.057Z,100319.76
2022-09-24T05:27:13.062Z,100323.15
2022-09-24T05:28:11.061Z,100323.97
2022-09-24T05:29:11.099Z,100322.11
2022-09-24T05:30:11.054Z,100320.53
2022-09-24T05:31:11.108Z,100325.51
2022-09-24T05:32:11.060Z,100320.01
2022-09-24T05:33:11.060Z,100324.66
2022-09-24T05:34:11.058Z,100322.75
2022-09-24T05:35:12.061Z,100324.38
2022-09-24T05:36:11.058Z,100323.46
2022-09-24T05:37:11.059Z,100326.14
2022-09-24T05:38:11.061Z,100324.63
2022-09-24T05:39:11.111Z,100326.22
2022-09-24T05:40:15.146Z,100329.18
2022-09-24T05:41:11.067Z,100326.50
2022-09-24T05:42:13.061Z,100330.38
2022-09-24T05:43:11.056Z,100329.72
2022-09-24T05:44:11.064Z,100332.94
2022-09-24T05:45:11.061Z,100331.02
2022-09-24T05:46:11.099Z,100333.15
2022-09-24T05:47:11.062Z,100334.28
2022-09-24T05:48:11.062Z,100332.76
2022-09-24T05:49:11.170Z,100333.20
2022-09-24T05:50:11.061Z,100335.38
2022-09-24T05:51:11.070Z,100336.48
2022-09-24T05:52:11.062Z,100339.64
2022-09-24T05:53:11.063Z,100339.57
2022-09-24T05:54:11.068Z,100341.65
2022-09-24T05:55:11.063Z,100345.20
2022-09-24T05:56:11.057Z,100341.20
2022-09-24T05:57:11.065Z,100344.88
2022-09-24T05:58:11.062Z,100340.82
2022-09-24T05:59:11.126Z,100342.79
2022-09-24T06:00:11.061Z,100342.78
2022-09-24T06:01:11.079Z,100345.14
2022-09-24T06:02:11.272Z,100346.89
2022-09-24T06:03:14.207Z,100347.26
2022-09-24T06:04:11.069Z,100346.44
2022-09-24T06:05:11.063Z,100341.86
2022-09-24T06:06:11.063Z,100348.47
2022-09-24T06:07:11.069Z,100349.98
2022-09-24T06:08:11.061Z,100347.16
2022-09-24T06:09:11.272Z,100346.61
2022-09-24T06:10:11.071Z,100350.00
2022-09-24T06:11:11.063Z,100349.88
2022-09-24T06:12:11.060Z,100351.03
2022-09-24T06:13:11.070Z,100350.23
2022-09-24T06:14:11.064Z,100353.95
2022-09-24T06:15:11.065Z,100356.88
2022-09-24T06:16:11.147Z,100353.78
2022-09-24T06:17:11.077Z,100353.72
2022-09-24T06:18:11.068Z,100355.89
2022-09-24T06:19:11.152Z,100355.76
2022-09-24T06:20:11.066Z,100357.66
2022-09-24T06:21:12.059Z,100353.19
2022-09-24T06:22:11.084Z,100361.27
2022-09-24T06:23:11.062Z,100358.82
2022-09-24T06:24:11.058Z,100359.74
2022-09-24T06:25:11.059Z,100359.86
2022-09-24T06:26:12.060Z,100360.84
2022-09-24T06:27:11.058Z,100364.52
2022-09-24T06:28:11.058Z,100365.00
2022-09-24T06:29:11.133Z,100367.04
2022-09-24T06:30:11.058Z,100369.23
2022-09-24T06:31:11.113Z,100368.46
2022-09-24T06:32:11.071Z,100368.91
2022-09-24T06:33:11.088Z,100370.32
2022-09-24T06:34:11.059Z,100373.57
2022-09-24T06:35:11.066Z,100376.38
2022-09-24T06:36:11.057Z,100376.64
2022-09-24T06:37:11.060Z,100373.69
2022-09-24T06:38:12.061Z,100373.74
2022-09-24T06:39:11.109Z,100374.12
2022-09-24T06:40:11.114Z,100373.07
2022-09-24T06:41:11.061Z,100373.62
2022-09-24T06:42:11.059Z,100375.93
2022-09-24T06:43:11.058Z,100375.68
2022-09-24T06:44:11.067Z,100374.86
2022-09-24T06:45:11.058Z,100376.95
2022-09-24T06:46:11.087Z,100375.97
2022-09-24T06:47:11.065Z,100380.83
2022-09-24T06:48:11.062Z,100377.72
2022-09-24T06:49:11.117Z,100380.29
2022-09-24T06:50:11.062Z,100378.64
2022-09-24T06:51:11.059Z,100378.00
2022-09-24T06:52:11.061Z,100378.87
2022-09-24T06:53:11.068Z,100381.72
2022-09-24T06:54:11.059Z,100383.04
2022-09-24T06:55:11.060Z,100381.07
2022-09-24T06:56:11.071Z,100382.11
2022-09-24T06:57:11.058Z,100387.34
2022-09-24T06:58:14.060Z,100383.55
2022-09-24T06:59:11.098Z,100382.38
2022-09-24T07:00:11.059Z,100383.66
2022-09-24T07:01:11.242Z,100383.88
2022-09-24T07:02:11.108Z,100384.26
2022-09-24T07:03:15.061Z,100386.01
2022-09-24T07:04:11.057Z,100384.95
2022-09-24T07:05:11.063Z,100388.09
2022-09-24T07:06:11.062Z,100386.89
2022-09-24T07:07:15.063Z,100387.89
2022-09-24T07:08:11.062Z,100388.54
2022-09-24T07:09:11.096Z,100389.29
2022-09-24T07:10:11.062Z,100389.69
2022-09-24T07:11:12.061Z,100389.52
2022-09-24T07:12:11.063Z,100392.69
2022-09-24T07:13:11.061Z,100392.87
2022-09-24T07:14:11.063Z,100395.13
2022-09-24T07:15:11.069Z,100395.45
2022-09-24T07:16:11.100Z,100396.34
2022-09-24T07:17:11.067Z,100397.05
2022-09-24T07:18:11.069Z,100399.09
2022-09-24T07:19:11.174Z,100399.84
2022-09-24T07:20:11.066Z,100402.91
2022-09-24T07:21:11.068Z,100403.48
2022-09-24T07:22:11.060Z,100402.11
2022-09-24T07:23:11.054Z,100400.62
2022-09-24T07:24:11.059Z,100403.82
2022-09-24T07:25:11.066Z,100401.67
2022-09-24T07:26:11.058Z,100404.09
2022-09-24T07:27:11.057Z,100405.10
2022-09-24T07:28:12.061Z,100401.38
2022-09-24T07:29:11.135Z,100402.87
2022-09-24T07:30:11.060Z,100406.43
2022-09-24T07:31:11.088Z,100407.21
2022-09-24T07:32:11.061Z,100407.80
2022-09-24T07:33:11.062Z,100406.49
2022-09-24T07:34:11.173Z,100408.26
2022-09-24T07:35:11.058Z,100406.28
2022-09-24T07:36:12.061Z,100410.11
2022-09-24T07:37:11.070Z,100407.59
2022-09-24T07:38:12.289Z,100413.91
2022-09-24T07:39:11.057Z,100416.38
2022-09-24T07:40:11.086Z,100413.96
2022-09-24T07:41:11.062Z,100416.39
2022-09-24T07:42:11.057Z,100411.89
2022-09-24T07:43:15.069Z,100418.47
2022-09-24T07:44:11.143Z,100414.91
2022-09-24T07:45:11.061Z,100414.04
2022-09-24T07:46:11.122Z,100412.78
2022-09-24T07:47:15.389Z,100416.38
2022-09-24T07:48:11.061Z,100418.35
2022-09-24T07:49:11.056Z,100417.25
2022-09-24T07:50:11.068Z,100418.18
2022-09-24T07:51:12.064Z,100418.24
2022-09-24T07:52:11.061Z,100412.53
2022-09-24T07:53:13.065Z,100412.89
2022-09-24T07:54:13.856Z,100413.78
2022-09-24T07:55:13.100Z,100415.63
2022-09-24T07:56:11.066Z,100418.04
2022-09-24T07:57:13.068Z,100417.70
2022-09-24T07:58:12.067Z,100417.28
2022-09-24T07:59:15.058Z,100421.55
2022-09-24T08:00:11.064Z,100420.73
2022-09-24T08:01:11.063Z,100420.72
2022-09-24T08:02:15.156Z,100422.32
2022-09-24T08:03:11.073Z,100422.87
2022-09-24T08:04:11.222Z,100423.13
2022-09-24T08:05:11.061Z,100424.25
2022-09-24T08:06:11.064Z,100423.44
2022-09-24T08:07:11.071Z,100426.07
2022-09-24T08:08:11.063Z,100426.57
2022-09-24T08:09:11.059Z,100429.45
2022-09-24T08:10:11.064Z,100428.02
2022-09-24T08:11:11.063Z,100424.52
2022-09-24T08:12:11.067Z,100428.20
2022-09-24T08:13:11.066Z,100429.48
2022-09-24T08:14:11.155Z,100425.32
2022-09-24T08:15:11.063Z,100428.60
2022-09-24T08:16:11.100Z,100428.46
2022-09-24T08:17:11.067Z,100431.59
2022-09-24T08:18:11.064Z,100427.53
2022-09-24T08:19:11.063Z,100434.20
2022-09-24T08:20:11.064Z,100431.45
2022-09-24T08:21:11.058Z,100432.91
2022-09-24T08:22:11.057Z,100438.17
2022-09-24T08:23:11.059Z,100438.95
2022-09-24T08:24:11.094Z,100437.38
2022-09-24T08:25:11.058Z,100433.85
2022-09-24T08:26:11.067Z,100435.03
2022-09-24T08:27:16.439Z,100439.02
2022-09-24T08:28:13.079Z,100440.21
2022-09-24T08:29:11.066Z,100444.04
2022-09-24T08:30:11.085Z,100439.53
2022-09-24T08:31:13.168Z,100440.91
2022-09-24T08:32:11.061Z,100440.47
2022-09-24T08:33:12.060Z,100438.59
2022-09-24T08:34:11.116Z,100440.03
2022-09-24T08:35:12.062Z,100438.35
2022-09-24T08:36:11.060Z,100446.09
2022-09-24T08:37:11.055Z,100447.41
2022-09-24T08:38:11.062Z,100445.89
2022-09-24T08:39:11.060Z,100446.13
2022-09-24T08:40:18.133Z,100449.72
2022-09-24T08:41:19.062Z,100451.54
2022-09-24T08:42:21.074Z,100450.22
2022-09-24T08:43:21.061Z,100451.61
2022-09-24T08:44:20.059Z,100450.77
2022-09-24T08:45:15.062Z,100452.86
2022-09-24T08:46:24.114Z,100452.62
2022-09-24T08:47:19.073Z,100454.13
2022-09-24T08:48:19.064Z,100455.86
2022-09-24T08:49:14.059Z,100454.65
2022-09-24T08:50:21.096Z,100454.50
2022-09-24T08:51:14.061Z,100455.91
2022-09-24T08:52:19.073Z,100454.08
2022-09-24T08:53:21.062Z,100451.32
2022-09-24T08:54:14.064Z,100454.49
2022-09-24T08:55:19.058Z,100455.31
2022-09-24T08:56:11.061Z,100456.38
2022-09-24T08:57:14.065Z,100454.07
2022-09-24T08:58:23.061Z,100456.53
2022-09-24T08:59:21.058Z,100454.28
2022-09-24T09:00:15.066Z,100457.91
2022-09-24T09:01:21.122Z,100461.53
2022-09-24T09:02:21.191Z,100461.43
2022-09-24T09:03:18.101Z,100461.54
2022-09-24T09:04:19.061Z,100460.89
2022-09-24T09:05:19.063Z,100462.65
2022-09-24T09:06:19.070Z,100464.91
2022-09-24T09:07:18.063Z,100462.95
2022-09-24T09:08:44.947Z,100465.09
2022-09-24T09:09:21.321Z,100464.26
2022-09-24T09:10:14.063Z,100462.46
2022-09-24T09:11:12.072Z,100468.05
2022-09-24T09:12:17.064Z,100470.66
2022-09-24T09:13:18.060Z,100467.29
2022-09-24T09:14:21.063Z,100472.74
2022-09-24T09:15:19.072Z,100469.05
2022-09-24T09:16:19.186Z,100470.53
2022-09-24T09:17:21.064Z,100470.68
2022-09-24T09:18:21.061Z,100467.61
2022-09-24T09:19:15.070Z,100468.11
2022-09-24T09:20:19.071Z,100468.16
2022-09-24T09:21:18.059Z,100472.20
2022-09-24T09:22:15.061Z,100469.58
2022-09-24T09:23:19.055Z,100471.13
2022-09-24T09:24:19.058Z,100468.39
2022-09-24T09:25:19.066Z,100472.34
2022-09-24T09:26:11.066Z,100472.00
2022-09-24T09:27:13.057Z,100470.77
2022-09-24T09:28:13.061Z,100468.31
2022-09-24T09:29:11.081Z,100471.91
2022-09-24T09:30:16.061Z,100474.95
2022-09-24T09:31:20.136Z,100475.51
2022-09-24T09:32:19.060Z,100472.47
2022-09-24T09:33:19.067Z,100471.74
2022-09-24T09:34:21.059Z,100478.78
2022-09-24T09:35:21.062Z,100478.25
2022-09-24T09:36:21.060Z,100476.11
2022-09-24T09:37:24.897Z,100478.20
2022-09-24T09:38:23.089Z,100474.82
2022-09-24T09:39:21.068Z,100478.85
2022-09-24T09:40:26.535Z,100475.84
2022-09-24T09:41:23.326Z,100478.76
2022-09-24T09:42:19.060Z,100478.99
2022-09-24T09:43:11.061Z,100477.11
2022-09-24T09:44:16.069Z,100478.25
2022-09-24T09:45:21.890Z,100476.11
2022-09-24T09:46:22.202Z,100479.57
2022-09-24T09:47:19.063Z,100477.38
2022-09-24T09:48:11.062Z,100476.12
2022-09-24T09:49:11.061Z,100477.24
2022-09-24T09:50:21.066Z,100479.73
2022-09-24T09:51:22.006Z,100473.72
2022-09-24T09:52:19.063Z,100478.31
2022-09-24T09:53:19.064Z,100475.53
2022-09-24T09:54:11.186Z,100472.44
2022-09-24T09:55:15.063Z,100472.61
2022-09-24T09:56:11.060Z,100473.62
2022-09-24T09:57:14.063Z,100480.29
2022-09-24T09:58:19.065Z,100478.48
2022-09-24T09:59:18.062Z,100477.74
2022-09-24T10:00:19.064Z,100480.29
2022-09-24T10:01:16.071Z,100482.60
2022-09-24T10:02:17.155Z,100480.00
2022-09-24T10:03:19.158Z,100480.69
2022-09-24T10:04:19.067Z,100481.01
2022-09-24T10:05:22.191Z,100479.45
2022-09-24T10:06:16.095Z,100481.11
2022-09-24T10:07:14.067Z,100477.85
2022-09-24T10:08:22.071Z,100481.36
2022-09-24T10:09:17.067Z,100481.32
2022-09-24T10:10:19.066Z,100483.57
2022-09-24T10:11:16.074Z,100483.56
2022-09-24T10:12:15.075Z,100483.13
2022-09-24T10:13:12.066Z,100482.11
2022-09-24T10:14:15.070Z,100487.09
2022-09-24T10:15:19.067Z,100482.86
2022-09-24T10:16:11.118Z,100485.21
2022-09-24T10:17:16.073Z,100479.71
2022-09-24T10:18:14.066Z,100476.97
2022-09-24T10:19:20.073Z,100477.22
2022-09-24T10:20:16.067Z,100476.17
2022-09-24T10:21:19.054Z,100475.85
2022-09-24T10:22:18.059Z,100481.00
2022-09-24T10:23:21.070Z,100477.80
2022-09-24T10:24:18.066Z,100480.00
2022-09-24T10:25:19.060Z,100482.85
2022-09-24T10:26:11.057Z,100481.25
2022-09-24T10:27:14.058Z,100479.36
2022-09-24T10:28:19.067Z,100485.82
2022-09-24T10:29:20.067Z,100482.78
2022-09-24T10:30:15.140Z,100481.68
2022-09-24T10:31:16.146Z,100484.40
2022-09-24T10:32:19.067Z,100485.26
2022-09-24T10:33:11.062Z,100488.11
2022-09-24T10:34:21.056Z,100483.36
2022-09-24T10:35:19.063Z,100482.47
2022-09-24T10:36:19.070Z,100487.71
2022-09-24T10:37:15.068Z,100483.48
2022-09-24T10:38:21.058Z,100484.09
2022-09-24T10:39:15.060Z,100482.49
2022-09-24T10:40:14.268Z,100485.29
2022-09-24T10:41:21.070Z,100486.77
2022-09-24T10:42:19.062Z,100483.65
2022-09-24T10:43:18.060Z,100483.05
2022-09-24T10:44:13.102Z,100481.78
2022-09-24T10:45:14.087Z,100479.65
2022-09-24T10:46:16.151Z,100484.46
2022-09-24T10:47:19.062Z,100489.88
2022-09-24T10:48:20.064Z,100486.32
2022-09-24T10:49:19.070Z,100486.10
2022-09-24T10:50:21.062Z,100489.20
2022-09-24T10:51:24.208Z,100486.42
2022-09-24T10:52:24.101Z,100485.14
2022-09-24T10:53:16.058Z,100481.71
2022-09-24T10:54:21.064Z,100485.82
2022-09-24T10:55:19.089Z,100487.88
2022-09-24T10:56:21.065Z,100485.23
2022-09-24T10:57:19.060Z,100489.61
2022-09-24T10:58:19.063Z,100488.62
2022-09-24T10:59:19.065Z,100485.09
2022-09-24T11:00:19.066Z,100482.82
2022-09-24T11:01:18.148Z,100482.55
2022-09-24T11:02:19.161Z,100483.61
2022-09-24T11:03:19.172Z,100484.30
2022-09-24T11:04:19.065Z,100482.97
2022-09-24T11:05:14.071Z,100482.12
2022-09-24T11:06:19.066Z,100480.01
2022-09-24T11:07:19.063Z,100481.56
2022-09-24T11:08:21.065Z,100482.10
2022-09-24T11:09:19.069Z,100482.98
2022-09-24T11:10:19.065Z,100475.38
2022-09-24T11:11:19.063Z,100482.08
2022-09-24T11:12:18.061Z,100479.32
2022-09-24T11:13:19.073Z,100478.02
2022-09-24T11:14:19.084Z,100484.16
2022-09-24T11:15:19.071Z,100481.51
2022-09-24T11:16:16.143Z,100480.00
2022-09-24T11:17:21.064Z,100475.81
2022-09-24T11:18:19.074Z,100477.01
2022-09-24T11:19:21.067Z,100476.96
2022-09-24T11:20:19.067Z,100476.14
2022-09-24T11:21:19.058Z,100478.84
2022-09-24T11:22:19.058Z,100480.90
2022-09-24T11:23:19.065Z,100482.09
2022-09-24T11:24:23.060Z,100481.23